createdAt,value
2018-04-19T00:00:52.981Z,8.98
2018-04-19T00:03:21.142Z,9.73
2018-04-19T00:05:49.255Z,9.23
2018-04-19T00:08:18.129Z,9.07
2018-04-19T00:10:46.264Z,9.38
2018-04-19T00:13:14.381Z,8.95
2018-04-19T00:15:42.509Z,9.13
2018-04-19T00:18:10.650Z,9.10
2018-04-19T00:20:39.611Z,9.38
2018-04-19T00:23:08.269Z,9.55
2018-04-19T00:25:36.390Z,9.40
2018-04-19T00:28:04.508Z,9.43
2018-04-19T00:30:33.398Z,10.02
2018-04-19T00:33:02.282Z,9.43
2018-04-19T00:35:31.166Z,9.48
2018-04-19T00:37:59.308Z,9.77
2018-04-19T00:40:27.443Z,9.02
2018-04-19T00:42:56.746Z,9.45
2018-04-19T00:45:24.918Z,9.70
2018-04-19T00:47:53.806Z,9.27
2018-04-19T00:50:22.700Z,9.82
2018-04-19T00:53:08.561Z,9.75
2018-04-19T00:55:36.693Z,8.85
2018-04-19T00:58:04.811Z,9.20
2018-04-19T01:00:32.924Z,9.68
2018-04-19T01:03:01.804Z,9.30
2018-04-19T01:05:29.921Z,7.90
2018-04-19T01:07:58.057Z,9.27
2018-04-19T01:10:26.767Z,9.38
2018-04-19T01:12:55.645Z,8.05
2018-04-19T01:15:24.539Z,8.85
2018-04-19T01:17:52.688Z,9.30
2018-04-19T01:20:20.825Z,9.18
2018-04-19T01:22:48.937Z,9.45
2018-04-19T01:25:17.060Z,8.70
2018-04-19T01:27:45.944Z,8.98
2018-04-19T01:30:14.829Z,8.65
2018-04-19T01:32:44.451Z,8.90
2018-04-19T01:35:13.336Z,8.30
2018-04-19T01:37:41.456Z,8.88
2018-04-19T01:40:09.577Z,7.90
2018-04-19T01:42:37.729Z,9.38
2018-04-19T01:45:05.843Z,9.00
2018-04-19T01:47:34.021Z,8.82
2018-04-19T01:50:02.115Z,8.80
2018-04-19T01:52:30.993Z,8.88
2018-04-19T01:55:00.609Z,8.38
2018-04-19T01:57:28.719Z,8.63
2018-04-19T01:59:56.826Z,9.50
2018-04-19T02:02:24.953Z,8.77
2018-04-19T02:04:53.845Z,9.55
2018-04-19T02:07:22.750Z,9.27
2018-04-19T02:09:51.681Z,9.10
2018-04-19T02:12:19.784Z,9.82
2018-04-19T02:14:47.905Z,9.00
2018-04-19T02:17:16.782Z,8.50
2018-04-19T02:19:44.920Z,8.93
2018-04-19T02:22:13.025Z,9.70
2018-04-19T02:24:41.167Z,8.43
2018-04-19T02:27:09.285Z,8.55
2018-04-19T02:29:37.425Z,9.77
2018-04-19T02:32:05.550Z,9.25
2018-04-19T02:34:34.429Z,9.05
2018-04-19T02:37:02.570Z,9.15
2018-04-19T02:39:30.685Z,9.70
2018-04-19T02:41:58.804Z,9.20
2018-04-19T02:44:26.936Z,9.63
2018-04-19T02:46:55.061Z,8.15
2018-04-19T02:49:23.186Z,8.50
2018-04-19T02:51:51.327Z,8.80
2018-04-19T02:54:20.208Z,8.75
2018-04-19T02:56:48.324Z,9.30
2018-04-19T02:59:16.445Z,8.82
2018-04-19T03:01:45.326Z,8.57
2018-04-19T03:04:14.244Z,8.75
2018-04-19T03:06:42.359Z,8.85
2018-04-19T03:09:10.508Z,8.55
2018-04-19T03:11:38.613Z,8.75
2018-04-19T03:14:06.767Z,8.50
2018-04-19T03:16:34.904Z,9.18
2018-04-19T03:19:03.788Z,8.68
2018-04-19T03:21:31.922Z,9.50
2018-04-19T03:24:00.032Z,8.50
2018-04-19T03:26:28.167Z,8.95
2018-04-19T03:28:56.354Z,8.73
2018-04-19T03:31:25.197Z,8.45
2018-04-19T03:33:53.318Z,9.18
2018-04-19T03:36:21.427Z,8.65
2018-04-19T03:38:50.320Z,8.73
2018-04-19T03:41:18.431Z,8.27
2018-04-19T03:43:46.573Z,8.93
2018-04-19T03:46:14.675Z,8.27
2018-04-19T03:48:42.789Z,8.75
2018-04-19T03:51:10.918Z,8.23
2018-04-19T03:53:39.025Z,8.88
2018-04-19T03:56:07.919Z,9.02
2018-04-19T03:58:36.827Z,9.02
2018-04-19T04:01:05.749Z,8.63
2018-04-19T04:03:33.853Z,9.30
2018-04-19T04:06:01.970Z,9.25
2018-04-19T04:08:30.106Z,8.15
2018-04-19T04:10:58.229Z,8.73
2018-04-19T04:13:27.112Z,9.03
2018-04-19T04:15:56.018Z,8.70
2018-04-19T04:18:42.793Z,8.73
2018-04-19T04:21:18.363Z,8.83
2018-04-19T04:23:53.121Z,8.80
2018-04-19T04:26:21.225Z,8.77
2018-04-19T04:28:49.366Z,8.27
2018-04-19T04:31:17.495Z,8.77
2018-04-19T04:33:45.725Z,8.23
2018-04-19T04:36:13.849Z,8.63
2018-04-19T04:38:41.966Z,8.48
2018-04-19T04:41:10.857Z,7.87
2018-04-19T04:43:39.730Z,8.50
2018-04-19T04:46:07.885Z,8.07
2018-04-19T04:48:36.028Z,8.77
2018-04-19T04:51:04.148Z,8.70
2018-04-19T04:53:32.274Z,8.65
2018-04-19T04:56:00.387Z,8.20
2018-04-19T04:58:28.506Z,8.05
2018-04-19T05:00:57.390Z,8.45
2018-04-19T05:03:26.280Z,8.70
2018-04-19T05:05:54.386Z,8.80
2018-04-19T05:08:23.289Z,8.95
2018-04-19T05:10:51.392Z,8.35
2018-04-19T05:13:19.510Z,8.47
2018-04-19T05:15:48.404Z,7.90
2018-04-19T05:18:16.509Z,8.35
2018-04-19T05:20:44.628Z,8.55
2018-04-19T05:23:12.781Z,8.23
2018-04-19T05:25:40.914Z,8.90
2018-04-19T05:28:09.937Z,8.73
2018-04-19T05:30:38.054Z,9.00
2018-04-19T05:33:06.153Z,8.70
2018-04-19T05:35:34.287Z,9.32
2018-04-19T05:38:02.420Z,8.80
2018-04-19T05:40:31.318Z,9.30
2018-04-19T05:42:59.466Z,9.30
2018-04-19T05:45:27.595Z,8.77
2018-04-19T05:47:56.481Z,9.38
2018-04-19T05:50:25.369Z,9.48
2018-04-19T05:52:54.264Z,10.93
2018-04-19T05:55:23.146Z,10.63
2018-04-19T05:57:51.286Z,10.63
2018-04-19T06:00:19.443Z,10.57
2018-04-19T06:02:47.561Z,10.35
2018-04-19T06:05:15.686Z,10.52
2018-04-19T06:07:43.816Z,10.65
2018-04-19T06:10:11.962Z,10.32
2018-04-19T06:12:40.077Z,10.30
2018-04-19T06:15:08.275Z,10.32
2018-04-19T06:17:36.394Z,10.35
2018-04-19T06:20:05.274Z,10.40
2018-04-19T06:22:33.397Z,10.70
2018-04-19T06:25:01.525Z,10.00
2018-04-19T06:27:29.681Z,10.02
2018-04-19T06:29:58.609Z,10.25
2018-04-19T06:32:26.722Z,10.48
2018-04-19T06:34:54.849Z,9.95
2018-04-19T06:37:23.721Z,10.50
2018-04-19T06:39:51.861Z,11.55
2018-04-19T06:42:19.983Z,10.13
2018-04-19T06:44:48.878Z,9.90
2018-04-19T06:47:17.760Z,10.82
2018-04-19T06:49:45.893Z,9.98
2018-04-19T06:52:13.997Z,9.60
2018-04-19T06:54:42.106Z,9.88
2018-04-19T06:57:11.012Z,10.40
2018-04-19T06:59:39.140Z,10.48
2018-04-19T07:02:07.273Z,10.45
2018-04-19T07:04:35.401Z,10.98
2018-04-19T07:07:03.536Z,10.68
2018-04-19T07:09:31.672Z,10.43
2018-04-19T07:11:59.794Z,9.77
2018-04-19T07:14:27.946Z,10.80
2018-04-19T07:16:56.873Z,9.50
2018-04-19T07:19:24.986Z,11.70
2018-04-19T07:21:53.129Z,10.00
2018-04-19T07:24:21.248Z,9.63
2018-04-19T07:26:49.387Z,10.68
2018-04-19T07:29:17.505Z,10.55
2018-04-19T07:31:45.629Z,9.77
2018-04-19T07:34:13.764Z,9.38
2018-04-19T07:36:41.879Z,10.43
2018-04-19T07:39:10.021Z,10.15
2018-04-19T07:41:38.146Z,9.48
2018-04-19T07:44:06.322Z,10.93
2018-04-19T07:46:34.442Z,9.15
2018-04-19T07:49:02.554Z,9.52
2018-04-19T07:51:31.485Z,10.45
2018-04-19T07:53:59.569Z,9.15
2018-04-19T07:56:27.728Z,10.07
2018-04-19T07:58:55.866Z,9.95
2018-04-19T08:01:23.980Z,9.63
2018-04-19T08:03:52.117Z,10.93
2018-04-19T08:06:21.003Z,10.27
2018-04-19T08:08:49.201Z,11.25
2018-04-19T08:11:18.110Z,11.38
2018-04-19T08:13:46.256Z,11.27
2018-04-19T08:16:14.367Z,13.07
2018-04-19T08:18:42.478Z,11.82
2018-04-19T08:21:10.606Z,14.90
2018-04-19T08:23:39.500Z,14.85
2018-04-19T08:26:08.411Z,13.55
2018-04-19T08:28:36.543Z,14.25
2018-04-19T08:31:04.681Z,15.45
2018-04-19T08:33:32.798Z,15.60
2018-04-19T08:36:00.937Z,16.25
2018-04-19T08:38:29.073Z,16.75
2018-04-19T08:40:57.962Z,16.85
2018-04-19T08:43:26.101Z,15.82
2018-04-19T08:45:54.222Z,15.82
2018-04-19T08:48:22.360Z,17.15
2018-04-19T08:50:50.478Z,15.48
2018-04-19T08:53:19.369Z,16.48
2018-04-19T08:55:48.262Z,17.27
2018-04-19T08:58:16.623Z,15.73
2018-04-19T09:00:44.752Z,15.00
2018-04-19T09:03:12.877Z,13.90
2018-04-19T09:05:41.027Z,15.05
2018-04-19T09:08:09.129Z,13.88
2018-04-19T09:10:37.283Z,16.80
2018-04-19T09:13:05.397Z,16.17
2018-04-19T09:15:33.528Z,17.42
2018-04-19T09:18:01.671Z,15.65
2018-04-19T09:20:29.788Z,14.80
2018-04-19T09:22:57.987Z,16.50
2018-04-19T09:25:26.072Z,16.30
2018-04-19T09:27:54.225Z,16.58
2018-04-19T09:30:22.359Z,17.62
2018-04-19T09:32:51.249Z,16.52
2018-04-19T09:35:19.401Z,17.05
2018-04-19T09:37:47.510Z,17.65
2018-04-19T09:40:15.636Z,19.65
2018-04-19T09:42:43.766Z,17.33
2018-04-19T09:45:12.650Z,18.73
2018-04-19T09:47:40.801Z,19.80
2018-04-19T09:50:08.954Z,19.90
2018-04-19T09:52:37.123Z,20.48
2018-04-19T09:55:05.261Z,20.58
2018-04-19T09:57:33.454Z,20.25
2018-04-19T10:00:01.619Z,20.15
2018-04-19T10:02:29.746Z,19.58
2018-04-19T10:05:02.692Z,18.55
2018-04-19T10:07:31.588Z,22.08
2018-04-19T10:10:00.485Z,21.05
2018-04-19T10:12:29.380Z,19.60
2018-04-19T10:14:58.313Z,20.20
2018-04-19T10:17:26.441Z,20.75
2018-04-19T10:19:54.557Z,19.98
2018-04-19T10:22:22.693Z,19.60
2018-04-19T10:24:50.807Z,22.37
2018-04-19T10:27:18.990Z,20.45
2018-04-19T10:29:47.064Z,22.17
2018-04-19T10:32:15.176Z,21.25
2018-04-19T10:34:43.307Z,21.55
2018-04-19T10:37:12.191Z,19.98
2018-04-19T10:39:41.090Z,19.25
2018-04-19T10:42:09.970Z,20.83
2018-04-19T10:44:38.095Z,22.13
2018-04-19T10:47:06.237Z,22.00
2018-04-19T10:49:35.134Z,21.73
2018-04-19T10:52:04.025Z,20.52
2018-04-19T10:54:32.933Z,20.90
2018-04-19T10:57:01.844Z,21.27
2018-04-19T10:59:29.957Z,21.58
2018-04-19T11:01:58.098Z,19.60
2018-04-19T11:04:26.216Z,21.30
2018-04-19T11:06:54.357Z,22.58
2018-04-19T11:09:22.482Z,23.87
2018-04-19T11:11:50.617Z,22.33
2018-04-19T11:14:18.740Z,22.37
2018-04-19T11:16:48.379Z,21.75
2018-04-19T11:19:17.274Z,21.92
2018-04-19T11:21:45.393Z,21.15
2018-04-19T11:24:13.546Z,23.33
2018-04-19T11:26:41.678Z,22.37
2018-04-19T11:29:10.590Z,21.33
2018-04-19T11:31:39.529Z,21.98
2018-04-19T11:34:07.641Z,20.73
2018-04-19T11:36:36.705Z,22.05
2018-04-19T11:39:04.843Z,19.60
2018-04-19T11:41:33.867Z,21.00
2018-04-19T11:44:02.009Z,22.80
2018-04-19T11:46:30.147Z,24.75
2018-04-19T11:48:58.263Z,24.17
2018-04-19T11:51:27.138Z,23.95
2018-04-19T11:53:55.269Z,23.65
2018-04-19T11:56:23.396Z,22.48
2018-04-19T11:58:52.309Z,21.02
2018-04-19T12:01:20.420Z,21.55
2018-04-19T12:03:48.559Z,19.85
2018-04-19T12:06:17.461Z,18.58
2018-04-19T12:08:45.574Z,18.20
2018-04-19T12:11:13.711Z,19.67
2018-04-19T12:13:41.901Z,20.67
2018-04-19T12:16:09.968Z,20.27
2018-04-19T12:18:38.086Z,17.62
2018-04-19T12:21:06.208Z,17.80
2018-04-19T12:23:34.344Z,18.27
2018-04-19T12:26:02.485Z,16.67
2018-04-19T12:28:31.373Z,18.05
2018-04-19T12:31:00.267Z,18.12
2018-04-19T12:33:29.163Z,18.60
2018-04-19T12:35:58.052Z,17.95
2018-04-19T12:38:26.966Z,19.05
2018-04-19T12:40:55.905Z,16.62
2018-04-19T12:43:24.076Z,17.00
2018-04-19T12:45:52.185Z,15.52
2018-04-19T12:48:20.306Z,15.02
2018-04-19T12:50:49.146Z,14.55
2018-04-19T12:53:17.279Z,17.35
2018-04-19T12:55:45.406Z,18.50
2018-04-19T12:58:13.533Z,12.13
2018-04-19T13:00:41.674Z,11.95
2018-04-19T13:03:11.289Z,10.05
2018-04-19T13:05:39.438Z,10.18
2018-04-19T13:08:07.557Z,12.70
2018-04-19T13:10:36.443Z,14.60
2018-04-19T13:13:05.349Z,12.35
2018-04-19T13:15:34.242Z,11.25
2018-04-19T13:18:03.126Z,13.62
2018-04-19T13:20:31.240Z,13.38
2018-04-19T13:22:59.363Z,10.55
2018-04-19T13:25:27.481Z,12.10
2018-04-19T13:27:55.636Z,12.88
2018-04-19T13:30:23.753Z,10.15
2018-04-19T13:32:51.867Z,10.52
2018-04-19T13:35:19.998Z,13.50
2018-04-19T13:37:48.115Z,14.07
2018-04-19T13:40:16.272Z,13.05
2018-04-19T13:42:44.397Z,11.20
2018-04-19T13:45:12.540Z,10.45
2018-04-19T13:47:40.668Z,11.60
2018-04-19T13:50:09.595Z,10.30
2018-04-19T13:52:37.741Z,11.30
2018-04-19T13:55:06.614Z,13.32
2018-04-19T13:57:34.740Z,11.70
2018-04-19T14:00:02.879Z,11.75
2018-04-19T14:02:31.766Z,12.57
2018-04-19T14:04:59.904Z,10.48
2018-04-19T14:07:28.012Z,12.48
2018-04-19T14:09:57.650Z,13.20
2018-04-19T14:12:26.544Z,13.10
2018-04-19T14:14:55.427Z,12.13
2018-04-19T14:17:23.554Z,13.95
2018-04-19T14:19:51.675Z,15.40
2018-04-19T14:22:19.815Z,15.00
2018-04-19T14:24:47.933Z,17.60
2018-04-19T14:27:16.853Z,14.90
2018-04-19T14:29:45.740Z,14.87
2018-04-19T14:32:14.641Z,14.93
2018-04-19T14:34:43.551Z,15.30
2018-04-19T14:37:11.670Z,13.88
2018-04-19T14:39:40.563Z,19.02
2018-04-19T14:42:08.690Z,15.98
2018-04-19T14:44:37.577Z,14.93
2018-04-19T14:47:06.457Z,14.82
2018-04-19T14:49:35.355Z,16.20
2018-04-19T14:52:04.903Z,18.77
2018-04-19T14:54:33.031Z,19.65
2018-04-19T14:57:02.666Z,19.65
2018-04-19T14:59:31.549Z,19.27
2018-04-19T15:02:00.454Z,17.55
2018-04-19T15:04:29.333Z,18.62
2018-04-19T15:06:58.247Z,16.75
2018-04-19T15:09:27.129Z,17.52
2018-04-19T15:11:56.021Z,17.02
2018-04-19T15:14:24.916Z,18.50
2018-04-19T15:16:53.038Z,17.30
2018-04-19T15:19:21.150Z,15.70
2018-04-19T15:21:49.290Z,18.25
2018-04-19T15:24:17.419Z,15.95
2018-04-19T15:26:45.576Z,16.90
2018-04-19T15:29:13.716Z,15.30
2018-04-19T15:31:41.867Z,15.25
2018-04-19T15:34:09.996Z,14.87
2018-04-19T15:36:38.107Z,15.63
2018-04-19T15:39:07.039Z,15.05
2018-04-19T15:41:35.720Z,15.00
2018-04-19T15:44:03.846Z,16.55
2018-04-19T15:46:31.969Z,16.45
2018-04-19T15:49:00.973Z,16.60
2018-04-19T15:51:29.127Z,14.23
2018-04-19T15:53:58.022Z,15.23
2018-04-19T15:56:26.960Z,15.20
2018-04-19T15:58:55.108Z,16.30
2018-04-19T16:01:24.069Z,16.70
2018-04-19T16:03:52.241Z,16.87
2018-04-19T16:06:20.359Z,14.77
2018-04-19T16:08:49.349Z,16.15
2018-04-19T16:11:18.298Z,14.07
2018-04-19T16:13:47.142Z,15.30
2018-04-19T16:16:16.127Z,15.30
2018-04-19T16:18:44.302Z,15.93
2018-04-19T16:21:12.433Z,15.93
2018-04-19T16:23:40.573Z,13.25
2018-04-19T16:26:09.453Z,13.82
2018-04-19T16:28:38.357Z,11.70
2018-04-19T16:31:07.317Z,13.48
2018-04-19T16:33:35.552Z,15.48
2018-04-19T16:36:03.674Z,15.45
2018-04-19T16:38:31.796Z,14.48
2018-04-19T16:41:00.714Z,14.75
2018-04-19T16:43:28.825Z,14.52
2018-04-19T16:45:57.070Z,13.80
2018-04-19T16:48:25.183Z,13.32
2018-04-19T16:50:53.313Z,12.57
2018-04-19T16:53:22.223Z,12.02
2018-04-19T16:55:50.426Z,11.77
2018-04-19T16:58:19.273Z,12.75
2018-04-19T17:00:48.175Z,12.43
2018-04-19T17:03:17.074Z,12.00
2018-04-19T17:05:45.220Z,12.70
2018-04-19T17:08:14.174Z,13.02
2018-04-19T17:10:42.290Z,13.23
2018-04-19T17:13:10.440Z,12.77
2018-04-19T17:15:38.590Z,13.57
2018-04-19T17:18:06.716Z,13.82
2018-04-19T17:20:34.925Z,14.65
2018-04-19T17:23:03.842Z,15.77
2018-04-19T17:25:31.985Z,14.85
2018-04-19T17:28:00.169Z,14.65
2018-04-19T17:30:28.254Z,12.27
2018-04-19T17:32:56.429Z,13.45
2018-04-19T17:35:25.311Z,12.65
2018-04-19T17:37:53.864Z,12.77
2018-04-19T17:40:21.996Z,13.23
2018-04-19T17:42:50.877Z,11.85
2018-04-19T17:45:19.785Z,13.20
2018-04-19T17:47:48.666Z,11.55
2018-04-19T17:50:17.711Z,11.60
2018-04-19T17:52:45.848Z,11.55
2018-04-19T17:55:14.791Z,12.68
2018-04-19T17:57:42.923Z,12.35
2018-04-19T18:00:11.822Z,12.23
2018-04-19T18:02:40.713Z,11.77
2018-04-19T18:05:09.595Z,11.57
2018-04-19T18:07:37.736Z,12.00
2018-04-19T18:10:05.856Z,11.48
2018-04-19T18:12:34.745Z,10.70
2018-04-19T18:15:03.665Z,10.48
2018-04-19T18:17:31.813Z,10.43
2018-04-19T18:19:59.936Z,10.40
2018-04-19T18:22:28.059Z,10.30
2018-04-19T18:24:56.193Z,10.30
2018-04-19T18:27:24.314Z,9.82
2018-04-19T18:29:52.456Z,10.43
2018-04-19T18:32:20.591Z,10.10
2018-04-19T18:34:49.494Z,11.20
2018-04-19T18:37:18.382Z,10.40
2018-04-19T18:39:47.287Z,11.27
2018-04-19T18:42:15.411Z,11.15
2018-04-19T18:44:43.531Z,10.93
2018-04-19T18:47:12.448Z,10.82
2018-04-19T18:49:40.583Z,10.70
2018-04-19T18:52:09.469Z,11.18
2018-04-19T18:54:37.583Z,10.23
2018-04-19T18:57:06.501Z,10.35
2018-04-19T18:59:34.671Z,10.10
2018-04-19T19:02:02.793Z,10.85
2018-04-19T19:04:30.943Z,10.80
2018-04-19T19:06:59.087Z,10.70
2018-04-19T19:09:28.000Z,10.25
2018-04-19T19:11:56.120Z,10.57
2018-04-19T19:14:25.766Z,11.02
2018-04-19T19:16:54.660Z,10.05
2018-04-19T19:19:41.486Z,10.65
2018-04-19T19:22:09.611Z,10.43
2018-04-19T19:24:37.734Z,10.88
2018-04-19T19:27:06.636Z,10.27
2018-04-19T19:29:35.591Z,10.40
2018-04-19T19:32:03.748Z,10.88
2018-04-19T19:34:31.870Z,11.38
2018-04-19T19:37:00.952Z,10.15
2018-04-19T19:39:29.903Z,10.85
2018-04-19T19:41:58.039Z,10.43
2018-04-19T19:44:26.956Z,11.90
2018-04-19T19:46:55.088Z,10.80
2018-04-19T19:49:23.999Z,11.12
2018-04-19T19:51:52.109Z,10.93
2018-04-19T19:54:20.297Z,10.93
2018-04-19T19:56:48.430Z,11.23
2018-04-19T19:59:16.550Z,10.32
2018-04-19T20:01:44.699Z,10.63
2018-04-19T20:04:13.603Z,10.02
2018-04-19T20:06:41.749Z,10.70
2018-04-19T20:09:10.091Z,10.93
2018-04-19T20:11:38.222Z,10.98
2018-04-19T20:14:07.122Z,11.40
2018-04-19T20:16:36.109Z,10.38
2018-04-19T20:19:04.248Z,10.98
2018-04-19T20:21:32.357Z,10.70
2018-04-19T20:24:01.313Z,9.60
2018-04-19T20:26:29.426Z,10.68
2018-04-19T20:28:58.316Z,10.38
2018-04-19T20:31:26.454Z,11.38
2018-04-19T20:33:54.599Z,11.50
2018-04-19T20:36:23.496Z,10.60
2018-04-19T20:38:52.403Z,11.48
2018-04-19T20:41:21.333Z,9.82
2018-04-19T20:43:49.465Z,10.40
2018-04-19T20:46:18.384Z,10.65
2018-04-19T20:48:46.501Z,10.55
2018-04-19T20:51:14.631Z,10.15
2018-04-19T20:53:42.741Z,10.82
2018-04-19T20:56:10.873Z,9.55
2018-04-19T20:58:39.770Z,10.90
2018-04-19T21:01:08.663Z,10.38
2018-04-19T21:03:37.557Z,10.95
2018-04-19T21:06:06.461Z,10.32
2018-04-19T21:08:34.581Z,10.63
2018-04-19T21:11:02.715Z,10.63
2018-04-19T21:13:31.632Z,10.55
2018-04-19T21:15:59.741Z,9.90
2018-04-19T21:18:27.987Z,11.50
2018-04-19T21:20:56.105Z,10.70
2018-04-19T21:23:24.233Z,10.80
2018-04-19T21:25:52.363Z,10.50
2018-04-19T21:28:21.277Z,11.52
2018-04-19T21:30:50.170Z,11.27
2018-04-19T21:33:19.068Z,10.73
2018-04-19T21:35:47.951Z,10.63
2018-04-19T21:38:16.079Z,10.48
2018-04-19T21:40:44.206Z,10.45
2018-04-19T21:43:13.101Z,9.93
2018-04-19T21:45:41.975Z,10.48
2018-04-19T21:48:10.101Z,10.63
2018-04-19T21:50:38.226Z,10.65
2018-04-19T21:53:06.342Z,11.10
2018-04-19T21:55:34.493Z,10.70
2018-04-19T21:58:02.600Z,9.98
2018-04-19T22:00:31.515Z,10.80
2018-04-19T22:02:59.648Z,11.57
2018-04-19T22:05:27.785Z,10.68
2018-04-19T22:07:55.912Z,11.27
2018-04-19T22:10:24.820Z,12.10
2018-04-19T22:12:53.697Z,11.50
2018-04-19T22:15:21.811Z,11.38
2018-04-19T22:17:49.930Z,11.02
2018-04-19T22:20:18.059Z,11.45
2018-04-19T22:22:46.944Z,11.57
2018-04-19T22:25:15.832Z,11.27
2018-04-19T22:27:45.166Z,11.00
2018-04-19T22:30:13.286Z,11.25
2018-04-19T22:32:41.422Z,10.88
2018-04-19T22:35:09.541Z,10.50
2018-04-19T22:37:37.654Z,11.27
2018-04-19T22:40:06.545Z,9.98
2018-04-19T22:42:35.420Z,10.57
2018-04-19T22:45:03.563Z,10.80
2018-04-19T22:47:31.670Z,10.30
2018-04-19T22:50:00.567Z,10.00
2018-04-19T22:52:28.682Z,9.48
2018-04-19T22:54:56.826Z,9.20
2018-04-19T22:57:25.713Z,9.50
2018-04-19T22:59:53.829Z,10.00
2018-04-19T23:02:21.959Z,10.23
2018-04-19T23:04:50.084Z,9.70
2018-04-19T23:07:18.215Z,8.77
2018-04-19T23:09:46.330Z,9.68
2018-04-19T23:12:15.247Z,9.63
2018-04-19T23:14:43.361Z,8.90
2018-04-19T23:17:11.484Z,10.68
2018-04-19T23:19:40.377Z,9.60
2018-04-19T23:22:09.268Z,9.48
2018-04-19T23:24:38.138Z,9.73
2018-04-19T23:27:06.262Z,10.05
2018-04-19T23:29:34.371Z,8.98
2018-04-19T23:32:02.501Z,8.98
2018-04-19T23:34:31.032Z,9.05
2018-04-19T23:36:59.794Z,9.32
2018-04-19T23:39:27.927Z,9.00
2018-04-19T23:41:56.041Z,8.73
2018-04-19T23:44:24.159Z,8.77
2018-04-19T23:46:52.266Z,8.68
2018-04-19T23:49:21.157Z,8.10
2018-04-19T23:51:49.268Z,8.60
2018-04-19T23:54:17.397Z,7.85
2018-04-19T23:56:45.507Z,8.50
2018-04-19T23:59:14.411Z,8.50
